createdAt,value
2023-03-22T00:02:04.548Z,7.35
2023-03-22T00:05:07.996Z,7.51
2023-03-22T00:08:13.510Z,7.54
2023-03-22T00:11:17.516Z,7.53
2023-03-22T00:14:20.341Z,7.57
2023-03-22T00:17:23.422Z,7.64
2023-03-22T00:20:33.838Z,7.63
2023-03-22T00:23:36.721Z,7.71
2023-03-22T00:26:39.481Z,7.61
2023-03-22T00:29:42.710Z,7.67
2023-03-22T00:32:45.665Z,7.68
2023-03-22T00:35:53.583Z,7.73
2023-03-22T00:38:56.476Z,7.74
2023-03-22T00:41:59.477Z,7.71
2023-03-22T00:45:02.164Z,7.66
2023-03-22T00:48:05.547Z,7.70
2023-03-22T00:51:11.793Z,7.64
2023-03-22T00:54:14.921Z,7.72
2023-03-22T00:57:18.244Z,7.74
2023-03-22T01:00:21.534Z,7.80
2023-03-22T01:03:24.772Z,7.75
2023-03-22T01:06:28.201Z,7.67
2023-03-22T01:09:33.773Z,7.59
2023-03-22T01:12:36.833Z,7.50
2023-03-22T01:15:39.692Z,7.39
2023-03-22T01:18:43.297Z,7.41
2023-03-22T01:21:46.719Z,7.42
2023-03-22T01:24:50.405Z,7.41
2023-03-22T01:27:53.969Z,7.42
2023-03-22T01:31:00.608Z,7.49
2023-03-22T01:34:03.671Z,7.55
2023-03-22T01:37:07.355Z,7.62
2023-03-22T01:40:13.203Z,7.72
2023-03-22T01:43:17.383Z,7.72
2023-03-22T01:46:20.854Z,7.81
2023-03-22T01:49:28.632Z,7.82
2023-03-22T01:52:31.787Z,7.79
2023-03-22T01:55:35.244Z,7.78
2023-03-22T01:58:40.610Z,7.86
2023-03-22T02:01:46.982Z,7.85
2023-03-22T02:04:58.148Z,7.80
2023-03-22T02:08:02.923Z,7.80
2023-03-22T02:11:07.565Z,7.88
2023-03-22T02:14:31.205Z,7.92
2023-03-22T02:17:59.690Z,8.03
2023-03-22T02:21:11.552Z,8.11
2023-03-22T02:24:48.457Z,8.11
2023-03-22T02:28:12.324Z,8.50
2023-03-22T02:31:56.661Z,8.51
2023-03-22T02:35:22.787Z,8.68
2023-03-22T02:38:59.152Z,8.70
2023-03-22T02:42:17.649Z,8.51
2023-03-22T02:45:30.300Z,8.49
2023-03-22T02:48:46.043Z,8.34
2023-03-22T02:52:12.730Z,8.35
2023-03-22T02:55:30.835Z,8.31
2023-03-22T02:58:40.071Z,8.30
2023-03-22T03:01:50.468Z,8.31
2023-03-22T03:04:56.128Z,8.31
2023-03-22T03:08:02.738Z,8.36
2023-03-22T03:11:07.144Z,8.40
2023-03-22T03:14:20.712Z,8.41
2023-03-22T03:17:23.805Z,8.40
2023-03-22T03:20:42.633Z,8.37
2023-03-22T03:24:16.973Z,8.36
2023-03-22T03:27:36.506Z,8.34
2023-03-22T03:30:49.471Z,8.36
2023-03-22T03:34:06.580Z,8.28
2023-03-22T03:37:14.578Z,8.34
2023-03-22T03:41:00.356Z,8.23
2023-03-22T03:44:04.438Z,8.17
2023-03-22T03:47:08.658Z,8.10
2023-03-22T03:50:15.697Z,8.07
2023-03-22T03:53:18.717Z,7.99
2023-03-22T03:56:21.817Z,8.04
2023-03-22T03:59:25.154Z,7.94
2023-03-22T04:02:28.795Z,7.83
2023-03-22T04:05:33.297Z,7.90
2023-03-22T04:08:36.103Z,7.91
2023-03-22T04:11:39.356Z,7.90
2023-03-22T04:14:42.371Z,7.91
2023-03-22T04:17:46.700Z,7.87
2023-03-22T04:20:53.516Z,7.82
2023-03-22T04:23:57.938Z,7.87
2023-03-22T04:27:01.685Z,7.86
2023-03-22T04:30:10.507Z,7.82
2023-03-22T04:33:16.703Z,7.86
2023-03-22T04:36:25.084Z,7.95
2023-03-22T04:39:29.318Z,7.88
2023-03-22T04:42:34.602Z,7.80
2023-03-22T04:45:39.159Z,7.77
2023-03-22T04:48:42.881Z,7.73
2023-03-22T04:51:46.386Z,7.73
2023-03-22T04:54:50.952Z,7.71
2023-03-22T04:57:54.783Z,7.74
2023-03-22T05:00:58.569Z,7.84
2023-03-22T05:04:01.318Z,7.85
2023-03-22T05:07:04.966Z,7.83
2023-03-22T05:10:08.998Z,7.87
2023-03-22T05:13:12.164Z,7.84
2023-03-22T05:16:15.231Z,8.09
2023-03-22T05:19:22.274Z,8.17
2023-03-22T05:22:25.863Z,8.31
2023-03-22T05:25:29.910Z,8.43
2023-03-22T05:28:34.390Z,8.50
2023-03-22T05:31:38.236Z,8.58
2023-03-22T05:34:45.505Z,8.62
2023-03-22T05:37:48.871Z,8.69
2023-03-22T05:40:52.006Z,8.79
2023-03-22T05:43:57.470Z,8.86
2023-03-22T05:47:00.550Z,8.90
2023-03-22T05:50:04.079Z,8.98
2023-03-22T05:53:07.022Z,9.10
2023-03-22T05:56:10.287Z,9.19
2023-03-22T05:59:13.304Z,9.29
2023-03-22T06:02:16.281Z,9.32
2023-03-22T06:05:21.094Z,9.49
2023-03-22T06:08:26.698Z,9.57
2023-03-22T06:11:33.918Z,9.45
2023-03-22T06:14:37.483Z,9.59
2023-03-22T06:17:42.410Z,9.70
2023-03-22T06:20:45.513Z,9.73
2023-03-22T06:23:49.516Z,9.79
2023-03-22T06:26:52.456Z,9.92
2023-03-22T06:29:55.919Z,10.01
2023-03-22T06:33:00.784Z,10.02
2023-03-22T06:36:04.796Z,10.11
2023-03-22T06:39:08.000Z,10.19
2023-03-22T06:42:11.357Z,10.29
2023-03-22T06:45:16.545Z,10.35
2023-03-22T06:48:19.831Z,10.38
2023-03-22T06:51:23.487Z,10.46
2023-03-22T06:54:26.543Z,10.66
2023-03-22T06:57:29.389Z,10.74
2023-03-22T07:00:34.296Z,10.67
2023-03-22T07:03:37.215Z,10.59
2023-03-22T07:06:40.448Z,10.70
2023-03-22T07:09:43.645Z,10.79
2023-03-22T07:12:48.896Z,10.90
2023-03-22T07:15:57.123Z,11.01
2023-03-22T07:19:01.946Z,10.93
2023-03-22T07:22:04.791Z,10.99
2023-03-22T07:25:09.011Z,10.95
2023-03-22T07:28:12.040Z,11.20
2023-03-22T07:31:16.224Z,11.23
2023-03-22T07:34:19.472Z,11.36
2023-03-22T07:37:24.814Z,11.40
2023-03-22T07:40:28.099Z,11.55
2023-03-22T07:43:35.386Z,11.65
2023-03-22T07:46:42.484Z,11.84
2023-03-22T07:49:51.489Z,11.95
2023-03-22T07:52:54.444Z,12.12
2023-03-22T07:55:57.564Z,12.22
2023-03-22T07:59:00.694Z,12.24
2023-03-22T08:02:04.385Z,12.32
2023-03-22T08:05:09.169Z,12.52
2023-03-22T08:08:13.656Z,12.31
2023-03-22T08:11:16.832Z,12.18
2023-03-22T08:14:27.441Z,12.50
2023-03-22T08:17:39.514Z,12.73
2023-03-22T08:20:45.819Z,12.90
2023-03-22T08:23:50.056Z,12.29
2023-03-22T08:26:56.277Z,12.16
2023-03-22T08:30:01.155Z,12.48
2023-03-22T08:33:04.554Z,12.27
2023-03-22T08:36:12.227Z,12.65
2023-03-22T08:39:16.088Z,12.60
2023-03-22T08:42:19.350Z,12.64
2023-03-22T08:45:22.478Z,13.04
2023-03-22T08:48:29.108Z,13.11
2023-03-22T08:51:32.751Z,12.81
2023-03-22T08:54:36.606Z,13.19
2023-03-22T08:57:41.759Z,13.17
2023-03-22T09:00:50.922Z,12.98
2023-03-22T09:03:54.921Z,13.35
2023-03-22T09:06:58.015Z,13.25
2023-03-22T09:10:00.775Z,13.61
2023-03-22T09:13:03.974Z,14.02
2023-03-22T09:16:08.931Z,13.89
2023-03-22T09:19:12.983Z,13.40
2023-03-22T09:22:16.501Z,13.63
2023-03-22T09:25:21.800Z,13.63
2023-03-22T09:28:25.243Z,13.85
2023-03-22T09:31:28.446Z,13.98
2023-03-22T09:34:33.412Z,14.25
2023-03-22T09:37:36.683Z,14.02
2023-03-22T09:40:50.625Z,13.84
2023-03-22T09:43:58.160Z,13.81
2023-03-22T09:47:04.254Z,13.53
2023-03-22T09:50:20.779Z,14.33
2023-03-22T09:53:26.945Z,14.35
2023-03-22T09:56:32.699Z,14.99
2023-03-22T09:59:53.075Z,14.83
2023-03-22T10:03:09.782Z,14.99
2023-03-22T10:06:19.427Z,15.09
2023-03-22T10:09:56.826Z,14.99
2023-03-22T10:13:46.555Z,14.73
2023-03-22T10:16:54.695Z,15.41
2023-03-22T10:20:09.213Z,15.57
2023-03-22T10:23:20.297Z,16.03
2023-03-22T10:26:31.215Z,16.80
2023-03-22T10:29:43.585Z,16.46
2023-03-22T10:32:59.258Z,16.56
2023-03-22T10:36:04.251Z,16.05
2023-03-22T10:39:32.745Z,16.43
2023-03-22T10:42:38.748Z,16.45
2023-03-22T10:45:42.722Z,16.65
2023-03-22T10:48:49.796Z,17.19
2023-03-22T10:51:58.160Z,17.24
2023-03-22T10:55:04.320Z,17.29
2023-03-22T10:58:21.761Z,17.70
2023-03-22T11:01:41.582Z,17.42
2023-03-22T11:04:56.856Z,17.58
2023-03-22T11:08:03.601Z,16.98
2023-03-22T11:11:15.003Z,17.01
2023-03-22T11:14:27.800Z,17.30
2023-03-22T11:17:31.444Z,17.08
2023-03-22T11:20:35.035Z,17.53
2023-03-22T11:23:41.307Z,16.75
2023-03-22T11:27:25.310Z,16.93
2023-03-22T11:30:29.654Z,17.03
2023-03-22T11:33:33.557Z,17.46
2023-03-22T11:36:44.442Z,18.11
2023-03-22T11:39:51.261Z,18.27
2023-03-22T11:42:57.088Z,18.38
2023-03-22T11:46:00.715Z,17.43
2023-03-22T11:49:09.288Z,17.87
2023-03-22T11:52:24.290Z,17.21
2023-03-22T11:55:31.799Z,18.14
2023-03-22T11:58:37.430Z,17.93
2023-03-22T12:01:51.308Z,18.39
2023-03-22T12:05:01.897Z,18.36
2023-03-22T12:08:18.926Z,17.87
2023-03-22T12:11:29.334Z,18.16
2023-03-22T12:14:48.385Z,18.29
2023-03-22T12:18:08.797Z,18.21
2023-03-22T12:21:12.093Z,18.56
2023-03-22T12:24:32.265Z,18.83
2023-03-22T12:27:41.031Z,18.72
2023-03-22T12:30:48.141Z,18.75
2023-03-22T12:33:54.802Z,18.99
2023-03-22T12:36:57.866Z,19.45
2023-03-22T12:40:16.096Z,19.20
2023-03-22T12:43:40.442Z,19.03
2023-03-22T12:46:56.037Z,19.11
2023-03-22T12:50:19.864Z,18.99
2023-03-22T12:53:27.724Z,18.83
2023-03-22T12:56:38.502Z,18.69
2023-03-22T12:59:44.177Z,18.43
2023-03-22T13:03:22.087Z,18.70
2023-03-22T13:06:50.924Z,18.84
2023-03-22T13:09:53.962Z,18.07
2023-03-22T13:13:16.749Z,17.96
2023-03-22T13:16:22.813Z,18.12
2023-03-22T13:20:12.601Z,18.50
2023-03-22T13:23:27.173Z,18.75
2023-03-22T13:26:47.959Z,18.20
2023-03-22T13:29:54.120Z,18.20
2023-03-22T13:33:08.851Z,18.12
2023-03-22T13:36:25.694Z,17.81
2023-03-22T13:39:34.717Z,17.62
2023-03-22T13:42:41.721Z,17.66
2023-03-22T13:46:26.368Z,17.80
2023-03-22T13:49:40.999Z,17.80
2023-03-22T13:53:04.221Z,17.60
2023-03-22T13:56:11.440Z,17.61
2023-03-22T13:59:25.487Z,17.52
2023-03-22T14:02:38.065Z,17.44
2023-03-22T14:05:44.279Z,17.44
2023-03-22T14:08:52.573Z,17.32
2023-03-22T14:12:31.079Z,17.32
2023-03-22T14:15:38.368Z,17.31
2023-03-22T14:18:44.349Z,17.51
